Time;durP1;ratioP1;P1;durP2;ratioP2;P2;SDS_P1;SDS_P2;PMS_P1;PMS_P2;Temp;Humidity;BMP_temperature;BMP_pressure;BME280_temperature;BME280_humidity;BME280_pressure;Samples;Min_cycle;Max_cycle;Signal;HPM_P1;HPM_P2
2022/10/24 00:02:04;;;;;;;20.17;13.00;;;;;;;12.26;100.00;99424.44;4999111;28;20466;-83
2022/10/24 00:04:30;;;;;;;17.35;11.88;;;;;;;12.26;100.00;99413.16;5000430;28;20052;-82
2022/10/24 00:06:55;;;;;;;16.50;12.23;;;;;;;12.35;100.00;99436.16;4998387;28;20026;-82
2022/10/24 00:09:21;;;;;;;19.35;11.95;;;;;;;12.27;100.00;99433.97;4997136;28;20022;-83
2022/10/24 00:11:46;;;;;;;15.32;11.40;;;;;;;12.33;100.00;99448.44;4995490;28;20022;-83
2022/10/24 00:14:11;;;;;;;16.48;11.90;;;;;;;12.36;100.00;99464.78;4983085;28;20522;-81
2022/10/24 00:16:37;;;;;;;18.08;11.70;;;;;;;12.32;100.00;99480.72;4998586;28;20022;-82
2022/10/24 00:19:02;;;;;;;20.15;12.13;;;;;;;12.30;100.00;99472.97;4983928;28;20014;-82
2022/10/24 00:21:28;;;;;;;15.18;12.27;;;;;;;12.30;100.00;99480.78;4998026;28;20056;-83
2022/10/24 00:23:53;;;;;;;19.20;13.00;;;;;;;12.27;100.00;99472.31;4997408;28;20076;-82
2022/10/24 00:26:19;;;;;;;16.70;13.07;;;;;;;12.28;100.00;99474.00;4999216;28;20409;-82
2022/10/24 00:28:44;;;;;;;21.27;13.52;;;;;;;12.16;100.00;99465.06;4970951;28;20050;-83
2022/10/24 00:31:15;;;;;;;18.10;12.80;;;;;;;12.23;100.00;99488.16;4988974;28;20034;-82
2022/10/24 00:33:41;;;;;;;;;;;;;;;12.22;100.00;99481.25;4990480;28;20030;-82
2022/10/24 00:36:15;;;;;;;17.85;12.75;;;;;;;12.21;100.00;99482.16;4981740;28;19960;-82
2022/10/24 00:38:40;;;;;;;18.17;13.07;;;;;;;12.20;100.00;99477.03;4997254;28;20105;-82
2022/10/24 00:41:06;;;;;;;15.68;13.50;;;;;;;12.10;100.00;99458.44;4997758;28;20105;-83
2022/10/24 00:43:31;;;;;;;16.73;13.52;;;;;;;12.18;100.00;99465.84;4976929;28;20022;-82
2022/10/24 00:46:02;;;;;;;16.98;13.68;;;;;;;12.21;100.00;99457.81;4998076;28;20018;-82
2022/10/24 00:48:56;;;;;;;20.08;14.23;;;;;;;12.24;100.00;99447.22;4999336;28;20022;-82
2022/10/24 00:51:29;;;;;;;19.67;14.02;;;;;;;12.18;100.00;99427.53;4924489;29;20083;-83
2022/10/24 00:54:06;;;;;;;18.15;14.07;;;;;;;12.20;100.00;99422.19;4940736;29;20038;-83
2022/10/24 00:56:36;;;;;;;20.33;13.15;;;;;;;12.19;100.00;99410.91;4940797;29;20179;-83
2022/10/24 00:59:04;;;;;;;20.83;13.48;;;;;;;12.16;100.00;99402.41;4938221;29;20114;-83
2022/10/24 01:01:30;;;;;;;15.88;13.50;;;;;;;12.16;100.00;99390.19;4941415;29;20507;-82
2022/10/24 01:03:55;;;;;;;14.73;12.48;;;;;;;12.17;100.00;99386.66;4942212;29;20122;-82
2022/10/24 01:06:21;;;;;;;15.40;12.90;;;;;;;12.22;100.00;99386.41;4940587;29;20064;-82
2022/10/24 01:09:23;;;;;;;17.95;13.18;;;;;;;12.15;100.00;99385.91;4919115;29;20039;-83
2022/10/24 01:12:06;;;;;;;15.65;12.43;;;;;;;12.13;100.00;99382.53;4920481;29;20031;-83
2022/10/24 01:14:40;;;;;;;19.10;13.25;;;;;;;12.05;100.00;99379.53;4918362;29;20039;-83
2022/10/24 01:17:16;;;;;;;16.20;12.98;;;;;;;12.04;100.00;99377.00;4914071;29;20032;-83
2022/10/24 01:20:01;;;;;;;15.90;12.60;;;;;;;12.03;100.00;99370.94;4913835;29;20066;-83
2022/10/24 01:23:05;;;;;;;19.30;13.15;;;;;;;12.09;100.00;99375.81;4913879;29;20037;-83
2022/10/24 01:25:42;;;;;;;16.67;12.93;;;;;;;12.11;100.00;99384.41;4895141;29;20024;-83
2022/10/24 01:28:17;;;;;;;17.00;13.60;;;;;;;12.07;100.00;99361.19;4901165;29;20421;-83
2022/10/24 01:30:49;;;;;;;16.10;13.73;;;;;;;12.05;100.00;99368.25;4913778;29;20036;-83
2022/10/24 01:33:17;;;;;;;17.65;13.25;;;;;;;12.01;100.00;99359.75;4913925;29;20035;-83
2022/10/24 01:35:53;;;;;;;16.85;13.15;;;;;;;12.01;100.00;99362.38;4913694;29;20028;-83
2022/10/24 01:38:27;;;;;;;18.00;13.40;;;;;;;11.89;100.00;99347.41;4913909;29;20028;-83
2022/10/24 01:41:11;;;;;;;20.67;13.55;;;;;;;11.99;100.00;99372.03;4931670;29;20444;-83
2022/10/24 01:43:41;;;;;;;14.50;12.38;;;;;;;11.90;100.00;99351.69;4932770;29;20042;-83
2022/10/24 01:46:14;;;;;;;16.92;13.10;;;;;;;11.92;100.00;99360.25;4932621;29;20027;-83
2022/10/24 01:48:45;;;;;;;18.27;13.80;;;;;;;11.87;100.00;99349.25;4932711;29;20043;-82
2022/10/24 01:51:14;;;;;;;17.58;13.73;;;;;;;11.90;100.00;99354.31;4932243;29;20510;-82
2022/10/24 01:53:42;;;;;;;19.15;13.18;;;;;;;11.82;100.00;99323.38;4932618;29;20027;-82
2022/10/24 01:56:08;;;;;;;16.27;13.32;;;;;;;11.73;100.00;99303.88;4957052;28;20482;-82
2022/10/24 01:58:33;;;;;;;18.92;13.40;;;;;;;11.75;100.00;99319.44;4992950;28;20176;-82
2022/10/24 02:01:04;;;;;;;15.23;13.07;;;;;;;11.78;100.00;99329.72;4992847;28;20101;-82
2022/10/24 02:03:41;;;;;;;;;;;;;;;11.79;100.00;99336.59;4993406;28;20157;-82
2022/10/24 02:06:16;;;;;;;16.13;12.63;;;;;;;11.70;100.00;99339.72;4992494;28;19912;-82
2022/10/24 02:08:46;;;;;;;19.95;14.15;;;;;;;11.77;100.00;99350.69;4992551;28;20050;-82
2022/10/24 02:11:12;;;;;;;19.02;13.07;;;;;;;11.78;100.00;99362.78;4992755;28;20040;-83
2022/10/24 02:14:01;;;;;;;16.27;13.18;;;;;;;11.69;100.00;99346.72;4992751;28;20034;-83
2022/10/24 02:16:28;;;;;;;16.40;13.57;;;;;;;11.76;100.00;99364.66;4992619;28;20026;-83
2022/10/24 02:18:56;;;;;;;17.08;13.02;;;;;;;11.70;100.00;99352.78;4992012;28;20026;-83
2022/10/24 02:21:37;;;;;;;19.92;14.13;;;;;;;11.68;100.00;99358.09;4992985;28;20109;-83
2022/10/24 02:24:15;;;;;;;14.70;11.65;;;;;;;11.65;100.00;99367.84;4992274;28;20362;-83
2022/10/24 02:26:52;;;;;;;17.27;12.90;;;;;;;11.60;100.00;99362.06;4992577;28;20085;-83
2022/10/24 02:29:25;;;;;;;16.48;13.07;;;;;;;11.52;100.00;99349.44;4992511;28;20027;-83
2022/10/24 02:31:55;;;;;;;17.00;13.80;;;;;;;11.41;100.00;99344.78;4992702;28;20466;-82
2022/10/24 02:34:22;;;;;;;22.65;17.23;;;;;;;11.43;100.00;99361.22;4995912;28;20340;-83
2022/10/24 02:36:51;;;;;;;21.23;15.55;;;;;;;11.33;100.00;99360.00;4970543;28;20107;-83
2022/10/24 02:39:19;;;;;;;18.67;14.98;;;;;;;11.30;100.00;99356.75;4996412;28;20462;-82
2022/10/24 02:41:45;;;;;;;16.02;14.07;;;;;;;11.30;100.00;99370.63;4996330;28;20030;-83
2022/10/24 02:44:14;;;;;;;16.02;14.25;;;;;;;11.27;100.00;99357.75;4978728;28;20022;-83
2022/10/24 02:46:41;;;;;;;18.52;13.63;;;;;;;11.19;100.00;99337.31;4996220;28;20026;-83
2022/10/24 02:49:07;;;;;;;17.38;14.52;;;;;;;11.20;100.00;99348.56;4996181;28;20054;-83
2022/10/24 02:51:37;;;;;;;20.48;14.73;;;;;;;11.21;100.00;99358.09;4996258;28;20481;-83
2022/10/24 02:54:03;;;;;;;16.27;13.20;;;;;;;11.14;100.00;99346.31;4995995;28;20052;-83
2022/10/24 02:56:29;;;;;;;16.55;13.50;;;;;;;11.14;100.00;99349.75;4996020;28;20369;-83
2022/10/24 02:58:54;;;;;;;17.88;13.07;;;;;;;11.14;100.00;99354.97;4995841;28;20030;-83
2022/10/24 03:01:20;;;;;;;15.20;12.98;;;;;;;11.07;100.00;99344.94;4996135;28;20037;-83
2022/10/24 03:03:46;;;;;;;15.48;12.48;;;;;;;11.18;100.00;99363.47;4996103;28;20022;-83
2022/10/24 03:06:11;;;;;;;14.60;12.20;;;;;;;11.18;100.00;99364.31;4995848;28;20030;-83
2022/10/24 03:08:37;;;;;;;14.70;12.65;;;;;;;11.13;100.00;99347.25;4978335;28;20026;-83
2022/10/24 03:11:03;;;;;;;16.95;13.00;;;;;;;11.15;100.00;99348.81;4995897;28;20129;-83
2022/10/24 03:13:29;;;;;;;16.10;12.43;;;;;;;11.14;100.00;99352.34;4995992;28;20100;-83
2022/10/24 03:15:54;;;;;;;13.45;11.10;;;;;;;11.09;100.00;99337.91;4995732;28;20450;-83
2022/10/24 03:18:19;;;;;;;16.13;11.73;;;;;;;11.08;100.00;99336.19;4995671;28;20470;-83
2022/10/24 03:20:45;;;;;;;17.58;12.95;;;;;;;11.08;100.00;99323.16;4995748;28;20105;-83
2022/10/24 03:23:11;;;;;;;15.00;12.40;;;;;;;11.09;100.00;99327.47;4995477;28;20019;-83
2022/10/24 03:25:36;;;;;;;14.75;11.75;;;;;;;11.12;100.00;99340.31;4995592;28;20429;-83
2022/10/24 03:28:02;;;;;;;14.00;11.88;;;;;;;11.08;100.00;99331.84;4995242;28;20028;-80
2022/10/24 03:30:27;;;;;;;15.52;11.77;;;;;;;11.09;100.00;99333.53;4995470;28;20034;-80
2022/10/24 03:32:52;;;;;;;16.08;11.27;;;;;;;11.15;100.00;99338.38;4995303;28;20018;-80
2022/10/24 03:35:18;;;;;;;15.18;11.18;;;;;;;11.10;100.00;99323.94;4995446;28;20022;-79
2022/10/24 03:37:43;;;;;;;14.70;12.18;;;;;;;11.16;100.00;99336.63;4977659;28;20022;-80
2022/10/24 03:40:09;;;;;;;14.98;11.50;;;;;;;11.15;100.00;99324.53;4995013;28;20097;-80
2022/10/24 03:42:35;;;;;;;15.40;11.07;;;;;;;11.18;100.00;99327.81;4995201;28;20081;-80
2022/10/24 03:45:01;;;;;;;18.63;12.95;;;;;;;11.17;100.00;99328.75;4994873;28;20030;-79
2022/10/24 03:47:26;;;;;;;21.30;14.02;;;;;;;11.14;100.00;99321.06;4995483;28;20077;-79
2022/10/24 03:49:52;;;;;;;24.25;14.60;;;;;;;11.22;100.00;99328.47;4994740;28;20046;-80
2022/10/24 03:52:17;;;;;;;25.42;15.35;;;;;;;11.23;100.00;99337.97;4995102;28;20014;-79
2022/10/24 03:54:42;;;;;;;22.88;14.45;;;;;;;11.19;100.00;99319.06;4995012;28;20413;-79
2022/10/24 03:57:08;;;;;;;20.02;14.05;;;;;;;11.21;100.00;99317.22;4994496;28;20469;-79
2022/10/24 03:59:34;;;;;;;19.38;13.40;;;;;;;11.20;100.00;99306.84;4995175;28;20022;-80
2022/10/24 04:02:00;;;;;;;16.23;12.25;;;;;;;11.31;100.00;99317.56;4977182;28;20467;-80
2022/10/24 04:04:26;;;;;;;14.40;11.38;;;;;;;11.30;100.00;99315.88;4994947;28;20030;-80
2022/10/24 04:06:51;;;;;;;15.48;12.07;;;;;;;11.38;100.00;99325.88;4977168;28;20085;-80
2022/10/24 04:09:17;;;;;;;15.93;12.25;;;;;;;11.34;100.00;99320.00;4993486;28;20026;-80
2022/10/24 04:11:42;;;;;;;17.27;12.07;;;;;;;11.37;100.00;99326.78;4994611;28;20052;-80
2022/10/24 04:14:08;;;;;;;13.25;11.57;;;;;;;11.34;100.00;99320.00;4994554;28;20037;-80
2022/10/24 04:16:34;;;;;;;18.98;12.32;;;;;;;11.37;100.00;99326.78;4994786;28;20070;-82
2022/10/24 04:18:59;;;;;;;14.63;12.40;;;;;;;11.33;100.00;99327.88;4994087;28;20034;-82
2022/10/24 04:21:24;;;;;;;14.73;11.43;;;;;;;11.34;100.00;99345.25;4994576;28;20509;-82
2022/10/24 04:23:50;;;;;;;15.43;11.63;;;;;;;11.35;100.00;99333.88;4994532;28;20626;-82
2022/10/24 04:26:16;;;;;;;16.85;12.85;;;;;;;11.31;100.00;99325.38;4994092;28;20026;-82
2022/10/24 04:28:42;;;;;;;13.68;12.25;;;;;;;11.31;100.00;99321.94;4994684;28;20040;-82
2022/10/24 04:31:08;;;;;;;14.77;13.00;;;;;;;11.31;100.00;99308.91;4994381;28;20044;-83
2022/10/24 04:33:35;;;;;;;17.52;12.75;;;;;;;11.36;100.00;99325.94;4994553;28;20042;-83
2022/10/24 04:36:00;;;;;;;15.30;12.23;;;;;;;11.38;100.00;99324.13;4993854;28;20023;-83
2022/10/24 04:38:26;;;;;;;15.18;12.90;;;;;;;11.30;100.00;99309.81;4994126;28;20377;-83
2022/10/24 04:40:53;;;;;;;20.38;15.15;;;;;;;11.36;100.00;99327.72;4994335;28;20018;-83
2022/10/24 04:43:20;;;;;;;21.08;14.38;;;;;;;11.32;100.00;99319.22;4994305;28;20037;-82
2022/10/24 04:45:46;;;;;;;17.02;13.48;;;;;;;11.34;100.00;99321.78;4994305;28;20030;-82
2022/10/24 04:48:12;;;;;;;16.92;12.35;;;;;;;11.27;100.00;99326.47;4993903;28;20022;-82
2022/10/24 04:50:39;;;;;;;15.73;12.45;;;;;;;11.28;100.00;99343.78;4976235;28;20069;-83
2022/10/24 04:53:05;;;;;;;12.95;11.20;;;;;;;11.26;100.00;99348.25;4993704;28;20030;-83
2022/10/24 04:55:30;;;;;;;14.75;11.40;;;;;;;11.17;100.00;99340.94;4993190;28;20030;-83
2022/10/24 04:57:55;;;;;;;14.05;10.43;;;;;;;11.21;100.00;99358.09;4993657;28;20484;-83
2022/10/24 05:00:21;;;;;;;11.68;10.20;;;;;;;11.25;100.00;99359.63;4993913;28;20022;-83
2022/10/24 05:02:46;;;;;;;12.85;9.93;;;;;;;11.16;100.00;99344.44;4994125;28;20189;-82
2022/10/24 05:05:12;;;;;;;18.42;13.05;;;;;;;11.22;100.00;99350.19;4993506;28;20022;-82
2022/10/24 05:07:37;;;;;;;29.30;19.15;;;;;;;11.26;100.00;99350.03;4993607;28;20022;-82
2022/10/24 05:10:04;;;;;;;22.95;18.00;;;;;;;11.23;100.00;99348.41;4993232;28;20056;-82
2022/10/24 05:12:30;;;;;;;29.63;22.75;;;;;;;11.26;100.00;99361.28;4993692;28;20510;-82
2022/10/24 05:14:55;;;;;;;15.18;13.23;;;;;;;11.28;100.00;99356.81;4993477;28;20062;-82
2022/10/24 05:17:20;;;;;;;15.23;12.60;;;;;;;11.28;100.00;99358.59;4993386;28;20022;-82
2022/10/24 05:19:46;;;;;;;17.33;14.02;;;;;;;11.28;100.00;99359.44;4993455;28;20105;-82
2022/10/24 05:22:11;;;;;;;14.75;12.43;;;;;;;11.20;100.00;99338.97;4993168;28;20018;-81
2022/10/24 05:24:37;;;;;;;17.90;15.40;;;;;;;11.20;100.00;99348.56;4993163;28;20030;-82
2022/10/24 05:27:02;;;;;;;18.73;13.98;;;;;;;11.21;100.00;99348.50;4993292;28;20026;-82
2022/10/24 05:29:28;;;;;;;16.63;13.40;;;;;;;11.13;100.00;99331.59;4993724;28;20505;-81
2022/10/24 05:31:53;;;;;;;14.57;13.05;;;;;;;11.11;100.00;99330.81;4993223;28;20053;-82
2022/10/24 05:34:18;;;;;;;16.67;12.50;;;;;;;11.15;100.00;99340.16;4992927;28;20359;-82
2022/10/24 05:36:44;;;;;;;17.38;13.98;;;;;;;11.14;100.00;99336.72;4993341;28;20027;-82
2022/10/24 05:39:09;;;;;;;16.00;13.20;;;;;;;11.18;100.00;99338.22;4992791;28;20110;-82
2022/10/24 05:41:34;;;;;;;16.13;12.00;;;;;;;11.15;100.00;99334.94;4993276;28;20434;-82
2022/10/24 05:44:00;;;;;;;13.35;11.77;;;;;;;11.09;100.00;99336.13;4992970;28;20026;-82
2022/10/24 05:46:25;;;;;;;13.52;10.85;;;;;;;11.10;100.00;99336.97;4993606;28;20427;-81
2022/10/24 05:48:51;;;;;;;13.57;10.60;;;;;;;11.15;100.00;99348.81;4993803;28;20033;-81
2022/10/24 05:51:16;;;;;;;14.75;10.95;;;;;;;11.14;100.00;99338.47;4992585;28;20055;-82
2022/10/24 05:53:41;;;;;;;13.10;10.55;;;;;;;11.16;100.00;99344.44;4975281;28;20113;-82
2022/10/24 05:56:07;;;;;;;13.15;11.70;;;;;;;11.20;100.00;99343.34;4993064;28;20037;-82
2022/10/24 05:58:33;;;;;;;12.75;10.48;;;;;;;11.21;100.00;99345.91;4975387;28;20363;-82
2022/10/24 06:00:59;;;;;;;14.30;10.65;;;;;;;11.22;100.00;99346.75;4992440;28;20026;-83
2022/10/24 06:03:25;;;;;;;12.63;10.15;;;;;;;11.35;100.00;99359.94;4975346;28;20026;-82
2022/10/24 06:05:50;;;;;;;13.18;9.85;;;;;;;11.34;100.00;99360.88;4992766;28;20026;-83
2022/10/24 06:08:16;;;;;;;12.50;9.32;;;;;;;11.45;100.00;99374.16;4991269;28;20377;-82
2022/10/24 06:10:46;;;;;;;10.52;9.43;;;;;;;11.40;100.00;99350.09;4992835;28;20038;-82
2022/10/24 06:13:11;;;;;;;10.07;9.05;;;;;;;11.46;100.00;99352.34;4975120;28;20403;-83
2022/10/24 06:15:36;;;;;;;11.38;9.35;;;;;;;11.57;100.00;99364.81;4992641;28;20165;-82
2022/10/24 06:18:02;;;;;;;12.88;9.80;;;;;;;11.57;100.00;99354.38;4974636;28;20018;-82
2022/10/24 06:20:27;;;;;;;10.40;9.02;;;;;;;11.64;100.00;99353.13;4992473;28;20029;-82
2022/10/24 06:22:53;;;;;;;10.38;8.63;;;;;;;11.68;100.00;99360.69;4992354;28;20026;-82
2022/10/24 06:25:18;;;;;;;10.20;8.90;;;;;;;11.77;100.00;99363.72;4992357;28;20022;-83
2022/10/24 06:27:43;;;;;;;13.82;8.85;;;;;;;11.79;100.00;99362.69;4992622;28;20023;-83
2022/10/24 06:30:10;;;;;;;11.15;8.85;;;;;;;11.79;100.00;99352.25;4992265;28;20030;-83
2022/10/24 06:32:36;;;;;;;11.82;9.30;;;;;;;11.87;100.00;99368.34;4992535;28;20536;-83
2022/10/24 06:35:02;;;;;;;12.05;9.57;;;;;;;11.85;100.00;99365.00;4996953;28;20026;-82
2022/10/24 06:37:29;;;;;;;14.60;11.32;;;;;;;11.88;100.00;99362.22;5011756;28;20021;-82
2022/10/24 06:39:54;;;;;;;15.18;11.48;;;;;;;11.92;100.00;99373.31;5012129;28;20030;-82
2022/10/24 06:42:19;;;;;;;14.95;10.05;;;;;;;11.91;100.00;99364.66;5012132;28;20026;-82
2022/10/24 06:44:45;;;;;;;11.63;9.07;;;;;;;12.04;100.00;99377.00;5012020;28;20088;-82
2022/10/24 06:47:10;;;;;;;11.00;9.13;;;;;;;12.02;100.00;99369.28;4994104;28;20084;-82
2022/10/24 06:49:35;;;;;;;8.95;7.78;;;;;;;12.14;100.00;99372.97;5011655;28;20073;-82
2022/10/24 06:52:01;;;;;;;8.60;7.68;;;;;;;12.19;100.00;99371.75;5011565;28;20028;-82
2022/10/24 06:54:26;;;;;;;10.95;8.10;;;;;;;12.16;100.00;99360.63;5012077;28;20034;-82
2022/10/24 06:56:52;;;;;;;10.60;8.23;;;;;;;12.24;100.00;99368.88;4994280;28;20022;-83
2022/10/24 06:59:17;;;;;;;9.57;7.75;;;;;;;12.36;100.00;99381.22;5011718;28;20028;-82
2022/10/24 07:01:43;;;;;;;8.65;7.78;;;;;;;12.40;100.00;99384.50;5011977;28;20038;-82
2022/10/24 07:04:09;;;;;;;9.63;7.65;;;;;;;12.46;100.00;99382.34;4994064;28;20061;-82
2022/10/24 07:06:34;;;;;;;9.60;7.95;;;;;;;12.46;100.00;99371.06;5011754;28;20069;-82
2022/10/24 07:09:01;;;;;;;8.32;7.32;;;;;;;12.51;100.00;99365.56;5011958;28;20432;-83
2022/10/24 07:11:27;;;;;;;8.98;7.28;;;;;;;12.63;100.00;99380.53;5011896;28;20025;-82
2022/10/24 07:13:52;;;;;;;9.95;7.30;;;;;;;12.63;100.00;99367.47;4994122;28;20068;-82
2022/10/24 07:16:18;;;;;;;8.85;7.20;;;;;;;12.72;100.00;99378.22;5011799;28;20104;-83
2022/10/24 07:18:44;;;;;;;9.20;6.88;;;;;;;12.83;100.00;99374.94;5012096;28;20458;-83
2022/10/24 07:21:14;;;;;;;8.98;8.05;;;;;;;12.93;100.00;99376.06;5014959;28;20026;-82
2022/10/24 07:23:40;;;;;;;10.00;7.72;;;;;;;13.05;100.00;99390.16;5015394;28;20104;-83
2022/10/24 07:26:09;;;;;;;9.45;7.35;;;;;;;13.06;100.00;99377.94;5014930;28;20030;-81
2022/10/24 07:28:36;;;;;;;8.60;7.70;;;;;;;13.14;100.00;99379.16;5015483;28;20108;-80
2022/10/24 07:31:02;;;;;;;11.15;7.53;;;;;;;13.20;100.00;99380.56;4997503;28;20461;-81
2022/10/24 07:33:27;;;;;;;9.48;7.05;;;;;;;13.21;100.00;99383.06;5014964;28;20036;-80
2022/10/24 07:35:53;;;;;;;10.73;7.40;;;;;;;13.22;100.00;99381.28;5014298;28;20026;-81
2022/10/24 07:38:19;;;;;;;8.40;7.20;;;;;;;13.30;100.00;99389.53;5011423;28;20033;-82
2022/10/24 07:40:45;;;;;;;9.80;8.32;;;;;;;13.35;100.00;99391.88;4999833;28;20052;-82
2022/10/24 07:43:10;;;;;;;12.25;8.63;;;;;;;13.46;100.00;99400.72;4980560;28;20480;-81
2022/10/24 07:45:38;;;;;;;11.75;7.95;;;;;;;13.42;100.00;99388.78;4999941;28;20018;-82
2022/10/24 07:48:05;;;;;;;10.27;7.93;;;;;;;13.47;100.00;99397.16;4999213;28;20023;-81
2022/10/24 07:50:32;;;;;;;9.75;8.02;;;;;;;13.51;100.00;99397.00;5004665;28;20538;-81
2022/10/24 07:52:58;;;;;;;10.95;7.75;;;;;;;13.51;100.00;99386.53;4998378;28;20037;-81
2022/10/24 07:55:23;;;;;;;10.95;7.70;;;;;;;13.48;100.00;99379.69;4994661;28;20113;-81
2022/10/24 07:57:48;;;;;;;12.80;8.23;;;;;;;13.49;100.00;99386.63;4995042;28;20069;-81
2022/10/24 08:00:14;;;;;;;12.18;7.90;;;;;;;13.55;100.00;99394.09;4994695;28;20468;-81
2022/10/24 08:02:40;;;;;;;11.75;7.95;;;;;;;13.57;100.00;99378.28;4994830;28;20473;-81
2022/10/24 08:05:06;;;;;;;9.82;7.03;;;;;;;13.63;100.00;99385.75;4994483;28;20978;-82
2022/10/24 08:07:34;;;;;;;9.05;7.55;;;;;;;13.73;100.00;99395.53;4995019;28;20030;-81
2022/10/24 08:10:00;;;;;;;8.65;7.55;;;;;;;13.79;100.00;99396.94;4994868;28;20489;-81
2022/10/24 08:12:25;;;;;;;11.52;8.10;;;;;;;13.78;100.00;99371.69;4993293;28;20030;-81
2022/10/24 08:14:52;;;;;;;9.45;7.57;;;;;;;13.87;100.00;99393.81;4994694;28;20080;-81
2022/10/24 08:17:18;;;;;;;12.38;8.70;;;;;;;13.91;100.00;99380.44;4994150;28;20101;-81
2022/10/24 08:19:44;;;;;;;13.88;8.40;;;;;;;14.01;100.00;99392.94;4994301;28;20454;-81
2022/10/24 08:22:10;;;;;;;11.75;7.80;;;;;;;14.03;100.00;99391.91;4994381;28;20030;-81
2022/10/24 08:24:35;;;;;;;12.70;8.18;;;;;;;14.03;100.00;99372.72;4994728;28;20077;-81
2022/10/24 08:27:01;;;;;;;12.82;8.07;;;;;;;14.10;100.00;99382.69;4994592;28;20018;-82
2022/10/24 08:29:26;;;;;;;11.88;8.50;;;;;;;14.12;100.00;99386.06;4994026;28;20053;-82
2022/10/24 08:31:53;;;;;;;10.38;7.78;;;;;;;14.18;100.00;99384.81;4975869;28;20014;-81
2022/10/24 08:34:19;;;;;;;10.43;8.05;;;;;;;14.22;100.00;99374.03;4994214;28;20113;-82
2022/10/24 08:36:46;;;;;;;12.02;8.63;;;;;;;14.34;100.00;99384.66;4994438;28;20081;-81
2022/10/24 08:39:12;;;;;;;11.00;7.22;;;;;;;14.37;100.00;99376.59;4994104;28;20125;-81
2022/10/24 08:41:40;;;;;;;11.00;8.32;;;;;;;14.49;100.00;99391.50;4994233;28;20101;-81
2022/10/24 08:44:17;;;;;;;12.40;8.15;;;;;;;14.50;100.00;99371.41;4994193;28;20102;-81
2022/10/24 08:46:58;;;;;;;9.77;7.15;;;;;;;14.68;100.00;99393.75;4994358;28;20362;-81
2022/10/24 08:49:29;;;;;;;11.85;8.50;;;;;;;14.75;100.00;99402.88;4993776;28;20053;-81
2022/10/24 08:52:10;;;;;;;11.00;8.00;;;;;;;14.77;100.00;99400.16;4994192;28;20362;-81
2022/10/24 08:54:39;;;;;;;11.85;7.78;;;;;;;14.76;100.00;99398.47;4993987;28;20414;-81
2022/10/24 08:57:09;;;;;;;8.43;7.40;;;;;;;14.79;100.00;99403.47;4993692;28;20378;-81
2022/10/24 08:59:35;;;;;;;9.85;7.60;;;;;;;14.84;100.00;99401.41;4993725;28;20265;-81
2022/10/24 09:02:07;;;;;;;11.55;7.57;;;;;;;14.95;100.00;99407.56;4993923;28;20045;-81
2022/10/24 09:04:42;;;;;;;11.68;7.68;;;;;;;15.08;100.00;99407.56;4976117;28;20063;-81
2022/10/24 09:07:16;;;;;;;10.10;7.50;;;;;;;15.20;100.00;99404.09;4993507;28;20033;-82
2022/10/24 09:09:45;;;;;;;9.77;7.22;;;;;;;15.36;100.00;99397.78;4976072;28;20109;-81
2022/10/24 09:12:16;;;;;;;10.35;7.35;;;;;;;15.45;100.00;99395.34;4993441;28;20113;-82
2022/10/24 09:14:44;;;;;;;13.38;7.30;;;;;;;15.58;100.00;99389.22;4993678;28;20030;-82
2022/10/24 09:17:18;;;;;;;8.90;7.13;;;;;;;15.82;100.00;99400.63;4993214;28;20026;-81
2022/10/24 09:19:50;;;;;;;10.13;6.50;;;;;;;16.06;100.00;99398.03;4993317;28;20537;-81
2022/10/24 09:22:16;;;;;;;10.95;6.18;;;;;;;16.19;100.00;99376.94;4993127;28;20031;-81
2022/10/24 09:24:55;;;;;;;8.48;5.90;;;;;;;16.46;100.00;99397.69;4993511;28;20073;-81
2022/10/24 09:27:25;;;;;;;24.25;7.15;;;;;;;16.51;100.00;99390.28;4993190;28;20470;-81
2022/10/24 09:29:51;;;;;;;11.35;6.35;;;;;;;16.59;100.00;99389.72;4975860;28;20362;-81
2022/10/24 09:32:25;;;;;;;9.93;5.95;;;;;;;16.68;100.00;99395.09;4991568;28;20095;-83
2022/10/24 09:34:51;;;;;;;11.90;5.90;;;;;;;16.68;100.00;99383.75;4993381;28;20025;-82
2022/10/24 09:37:32;;;;;;;10.85;5.68;;;;;;;16.83;100.00;99394.94;4993031;28;20045;-82
2022/10/24 09:40:28;;;;;;;9.60;5.88;;;;;;;16.89;100.00;99389.19;4975749;28;20027;-81
2022/10/24 09:43:17;;;;;;;9.98;5.68;;;;;;;17.00;100.00;99391.84;4944967;29;20039;-87
2022/10/24 09:45:49;;;;;;;14.95;5.43;;;;;;;17.09;100.00;99391.13;4953845;29;20098;-85
2022/10/24 09:48:21;;;;;;;7.78;4.72;;;;;;;17.18;100.00;99393.03;4944624;29;20051;-87
2022/10/24 09:50:48;;;;;;;8.93;4.78;;;;;;;17.27;100.00;99382.75;4920870;29;20142;-84
2022/10/24 09:53:24;;;;;;;8.35;4.95;;;;;;;17.42;100.00;99392.91;4943894;29;20043;-85
2022/10/24 09:55:53;;;;;;;9.68;4.65;;;;;;;17.42;100.00;99384.19;4935691;29;20478;-83
2022/10/24 09:58:21;;;;;;;10.25;5.70;;;;;;;17.48;100.00;99375.78;4951507;29;20470;-85
2022/10/24 10:01:00;;;;;;;7.68;4.80;;;;;;;17.55;100.00;99381.41;4951681;29;20086;-85
2022/10/24 10:03:25;;;;;;;5.32;4.32;;;;;;;17.60;100.00;99372.19;4951502;29;20028;-85
2022/10/24 10:06:01;;;;;;;9.40;4.93;;;;;;;17.66;100.00;99376.97;4935463;29;20043;-86
2022/10/24 10:08:30;;;;;;;5.40;3.70;;;;;;;17.69;100.00;99371.44;4951415;29;20031;-86
2022/10/24 10:11:04;;;;;;;8.98;3.67;;;;;;;17.63;100.00;99379.84;4935363;29;20444;-86
2022/10/24 10:13:36;;;;;;;6.20;3.95;;;;;;;17.50;100.00;99359.88;4947718;29;20042;-86
2022/10/24 10:16:04;;;;;;;6.50;3.90;;;;;;;17.41;100.00;99364.94;4924814;29;20059;-85
2022/10/24 10:18:39;;;;;;;7.70;3.75;;;;;;;17.32;100.00;99357.75;4917050;28;20032;-86
2022/10/24 10:21:09;;;;;;;5.20;3.75;;;;;;;17.36;100.00;99369.72;4966483;28;20023;-87
2022/10/24 10:23:44;;;;;;;9.48;4.25;;;;;;;17.40;100.00;99363.25;4973067;28;20094;-89
2022/10/24 10:26:12;;;;;;;5.50;3.38;;;;;;;17.45;100.00;99366.38;4967033;28;20031;-89
2022/10/24 10:29:03;;;;;;;7.03;3.67;;;;;;;17.45;100.00;99363.72;4972965;28;20026;-86
2022/10/24 10:31:37;;;;;;;9.07;3.45;;;;;;;17.52;100.00;99368.50;4972870;28;20058;-86
2022/10/24 10:34:18;;;;;;;5.68;3.50;;;;;;;17.59;100.00;99369.69;4965866;28;20046;-86
2022/10/24 10:36:50;;;;;;;5.65;3.50;;;;;;;17.63;100.00;99368.47;4971453;28;20031;-86
2022/10/24 10:39:18;;;;;;;9.45;4.03;;;;;;;17.69;100.00;99371.44;4967071;28;20030;-86
2022/10/24 10:41:51;;;;;;;8.75;3.97;;;;;;;17.76;99.53;99365.72;4991491;28;20378;-88
2022/10/24 10:44:23;;;;;;;5.35;3.75;;;;;;;17.91;99.14;99367.97;4979032;28;20545;-86
2022/10/24 10:47:16;;;;;;;7.53;3.70;;;;;;;18.02;98.29;99374.13;4994203;28;20018;-86
2022/10/24 10:49:41;;;;;;;6.43;3.75;;;;;;;18.08;98.39;99373.66;4980831;28;20049;-88
2022/10/24 10:52:37;;;;;;;6.85;3.50;;;;;;;18.16;98.58;99373.84;4970410;28;20478;-87
2022/10/24 10:55:12;;;;;;;6.72;4.25;;;;;;;18.23;98.83;99366.28;4972688;28;20026;-87
2022/10/24 10:57:57;;;;;;;14.20;4.28;;;;;;;18.23;98.48;99348.66;4994009;28;20099;-85
2022/10/24 11:00:34;;;;;;;5.10;3.55;;;;;;;18.33;98.80;99367.16;4984302;28;20034;-86
2022/10/24 11:03:18;;;;;;;7.97;3.88;;;;;;;18.41;98.69;99367.38;5000548;28;20022;-86
2022/10/24 11:06:08;;;;;;;8.40;3.97;;;;;;;18.44;98.05;99361.84;4984198;28;20113;-86
2022/10/24 11:09:10;;;;;;;5.03;3.42;;;;;;;18.41;97.54;99368.22;4995636;28;20018;-86
2022/10/24 11:12:01;;;;;;;7.80;3.88;;;;;;;18.34;98.15;99364.41;4997498;28;20046;-86
2022/10/24 11:14:42;;;;;;;7.63;4.00;;;;;;;18.39;98.00;99362.22;4942366;29;20032;-86
2022/10/24 11:17:21;;;;;;;7.22;3.55;;;;;;;18.45;97.74;99358.22;4926487;29;20110;-86
2022/10/24 11:20:31;;;;;;;9.05;3.78;;;;;;;18.57;97.09;99354.56;4942552;29;20028;-85
2022/10/24 11:23:08;;;;;;;7.38;4.07;;;;;;;18.70;95.71;99363.13;4880342;29;20123;-86
2022/10/24 11:25:40;;;;;;;8.50;3.92;;;;;;;18.68;95.85;99340.47;4880138;29;20124;-86
2022/10/24 11:28:17;;;;;;;6.55;3.92;;;;;;;18.71;95.31;99350.81;4895996;29;20676;-87